createdAt,value
2023-05-19T00:01:17.799Z,102065.38
2023-05-19T00:03:56.043Z,102064.84
2023-05-19T00:06:27.687Z,102060.09
2023-05-19T00:09:01.497Z,102064.34
2023-05-19T00:11:31.269Z,102059.91
2023-05-19T00:14:02.818Z,102062.78
2023-05-19T00:16:33.397Z,102058.25
2023-05-19T00:19:03.994Z,102058.88
2023-05-19T00:21:34.435Z,102063.66
2023-05-19T00:24:06.790Z,102058.03
2023-05-19T00:26:36.570Z,102053.34
2023-05-19T00:29:07.978Z,102061.09
2023-05-19T00:31:37.513Z,102058.69
2023-05-19T00:34:07.080Z,102057.34
2023-05-19T00:36:36.879Z,102052.91
2023-05-19T00:39:08.952Z,102053.59
2023-05-19T00:41:38.712Z,102049.22
2023-05-19T00:44:09.893Z,102055.09
2023-05-19T00:46:39.457Z,102049.03
2023-05-19T00:49:09.011Z,102048.66
2023-05-19T00:51:38.782Z,102049.69
2023-05-19T00:54:11.253Z,102050.53
2023-05-19T00:56:40.863Z,102044.09
2023-05-19T00:59:10.868Z,102037.75
2023-05-19T01:01:40.404Z,102048.94
2023-05-19T01:04:11.520Z,102045.75
2023-05-19T01:06:41.326Z,102039.94
2023-05-19T01:09:13.719Z,102041.66
2023-05-19T01:11:43.195Z,102040.75
2023-05-19T01:14:12.799Z,102043.69
2023-05-19T01:16:47.626Z,102043.69
2023-05-19T01:19:33.961Z,102045.69
2023-05-19T01:22:23.129Z,102046.72
2023-05-19T01:25:27.406Z,102053.16
2023-05-19T01:28:23.446Z,102046.81
2023-05-19T01:30:58.529Z,102044.13
2023-05-19T01:33:31.404Z,102039.84
2023-05-19T01:36:03.181Z,102043.13
2023-05-19T01:38:33.353Z,102038.44
2023-05-19T01:41:03.943Z,102033.34
2023-05-19T01:43:34.224Z,102040.94
2023-05-19T01:46:06.447Z,102042.47
2023-05-19T01:48:36.772Z,102042.34
2023-05-19T01:51:06.459Z,102045.56
2023-05-19T01:53:36.193Z,102045.97
2023-05-19T01:56:06.185Z,102044.97
2023-05-19T01:58:43.778Z,102049.97
2023-05-19T02:01:24.781Z,102055.25
2023-05-19T02:04:09.767Z,102054.38
2023-05-19T02:06:44.625Z,102051.00
2023-05-19T02:09:19.073Z,102048.81
2023-05-19T02:11:55.068Z,102036.00
2023-05-19T02:14:32.528Z,102046.13
2023-05-19T02:17:07.186Z,102039.22
2023-05-19T02:19:41.228Z,102044.78
2023-05-19T02:22:11.002Z,102044.66
2023-05-19T02:24:41.522Z,102040.19
2023-05-19T02:27:11.008Z,102047.91
2023-05-19T02:29:40.494Z,102045.50
2023-05-19T02:32:13.640Z,102042.63
2023-05-19T02:34:45.693Z,102040.22
2023-05-19T02:37:15.788Z,102036.13
2023-05-19T02:39:46.386Z,102031.03
2023-05-19T02:42:17.892Z,102031.56
2023-05-19T02:44:47.424Z,102028.84
2023-05-19T02:47:19.487Z,102027.88
2023-05-19T02:49:49.080Z,102032.13
2023-05-19T02:52:18.554Z,102029.66
2023-05-19T02:54:48.126Z,102021.91
2023-05-19T02:57:17.580Z,102023.97
2023-05-19T02:59:47.205Z,102023.44
2023-05-19T03:02:19.244Z,102026.31
2023-05-19T03:04:48.740Z,102023.69
2023-05-19T03:07:18.324Z,102028.50
2023-05-19T03:09:47.784Z,102024.56
2023-05-19T03:12:17.242Z,102024.31
2023-05-19T03:14:47.702Z,102022.25
2023-05-19T03:17:19.802Z,102023.53
2023-05-19T03:19:49.402Z,102021.38
2023-05-19T03:22:21.053Z,102018.22
2023-05-19T03:24:51.820Z,102020.16
2023-05-19T03:27:21.392Z,102017.91
2023-05-19T03:29:50.956Z,102021.25
2023-05-19T03:32:23.221Z,102010.00
2023-05-19T03:34:53.017Z,102020.06
2023-05-19T03:37:22.667Z,102013.72
2023-05-19T03:39:52.131Z,102016.75
2023-05-19T03:42:21.762Z,102017.22
2023-05-19T03:44:51.784Z,102012.19
2023-05-19T03:47:24.008Z,102014.22
2023-05-19T03:50:05.108Z,102016.75
2023-05-19T03:52:55.348Z,102021.22
2023-05-19T03:55:30.478Z,102014.34
2023-05-19T03:57:59.982Z,102025.66
2023-05-19T04:00:32.451Z,102021.16
2023-05-19T04:03:04.881Z,102014.91
2023-05-19T04:05:34.537Z,102024.88
2023-05-19T04:08:04.087Z,102023.63
2023-05-19T04:10:33.804Z,102020.31
2023-05-19T04:13:03.534Z,102010.78
2023-05-19T04:15:33.164Z,102008.88
2023-05-19T04:18:05.276Z,102018.91
2023-05-19T04:20:35.649Z,102021.31
2023-05-19T04:23:06.080Z,102022.41
2023-05-19T04:25:36.468Z,102026.41
2023-05-19T04:28:06.274Z,102020.16
2023-05-19T04:30:37.170Z,102028.34
2023-05-19T04:33:09.337Z,102028.06
2023-05-19T04:35:39.834Z,102029.53
2023-05-19T04:38:12.170Z,102030.75
2023-05-19T04:40:43.342Z,102030.44
2023-05-19T04:43:13.643Z,102031.75
2023-05-19T04:45:44.286Z,102034.22
2023-05-19T04:48:17.398Z,102037.91
2023-05-19T04:50:48.994Z,102037.84
2023-05-19T04:53:18.835Z,102036.91
2023-05-19T04:55:48.381Z,102040.34
2023-05-19T04:58:20.092Z,102038.03
2023-05-19T05:00:50.861Z,102031.44
2023-05-19T05:03:23.253Z,102039.19
2023-05-19T05:05:53.963Z,102037.66
2023-05-19T05:08:24.605Z,102036.16
2023-05-19T05:10:56.521Z,102035.63
2023-05-19T05:13:27.465Z,102029.97
2023-05-19T05:15:58.685Z,102036.84
2023-05-19T05:18:31.930Z,102032.06
2023-05-19T05:21:03.587Z,102031.31
2023-05-19T05:23:33.750Z,102031.00
2023-05-19T05:26:10.538Z,102036.06
2023-05-19T05:28:40.245Z,102027.44
2023-05-19T05:31:09.776Z,102027.75
2023-05-19T05:33:42.259Z,102028.97
2023-05-19T05:36:12.708Z,102031.19
2023-05-19T05:38:42.360Z,102026.28
2023-05-19T05:41:12.108Z,102025.78
2023-05-19T05:43:41.650Z,102027.72
2023-05-19T05:46:11.551Z,102028.03
2023-05-19T05:48:44.459Z,102028.81
2023-05-19T05:51:15.372Z,102031.91
2023-05-19T05:53:47.639Z,102030.28
2023-05-19T05:56:19.056Z,102029.25
2023-05-19T05:58:53.929Z,102033.34
2023-05-19T06:01:24.178Z,102035.59
2023-05-19T06:03:56.814Z,102043.03
2023-05-19T06:06:27.185Z,102044.09
2023-05-19T06:08:57.767Z,102041.53
2023-05-19T06:11:28.875Z,102037.16
2023-05-19T06:14:00.729Z,102042.78
2023-05-19T06:16:48.245Z,102041.09
2023-05-19T06:19:21.836Z,102032.81
2023-05-19T06:21:51.554Z,102040.63
2023-05-19T06:24:21.070Z,102037.38
2023-05-19T06:26:51.004Z,102032.50
2023-05-19T06:29:21.427Z,102034.72
2023-05-19T06:31:52.329Z,102031.88
2023-05-19T06:34:24.629Z,102039.50
2023-05-19T06:36:54.206Z,102033.09
2023-05-19T06:39:25.013Z,102040.03
2023-05-19T06:41:54.573Z,102037.69
2023-05-19T06:44:46.967Z,102042.66
2023-05-19T06:47:18.524Z,102032.34
2023-05-19T06:49:55.482Z,102047.25
2023-05-19T06:52:28.541Z,102031.56
2023-05-19T06:54:58.949Z,102035.66
2023-05-19T06:57:28.472Z,102038.38
2023-05-19T06:59:59.266Z,102036.19
2023-05-19T07:02:29.414Z,102024.72
2023-05-19T07:05:04.571Z,102034.84
2023-05-19T07:07:34.066Z,102028.09
2023-05-19T07:10:04.283Z,102029.47
2023-05-19T07:12:35.126Z,102034.25
2023-05-19T07:15:04.692Z,102037.97
2023-05-19T07:17:34.589Z,102034.09
2023-05-19T07:20:10.148Z,102037.31
2023-05-19T07:22:40.035Z,102031.56
2023-05-19T07:25:11.116Z,102023.44
2023-05-19T07:27:41.985Z,102026.69
2023-05-19T07:30:12.469Z,102020.94
2023-05-19T07:32:42.054Z,102022.13
2023-05-19T07:35:14.235Z,102025.22
2023-05-19T07:37:43.751Z,102017.09
2023-05-19T07:40:13.742Z,102015.06
2023-05-19T07:42:44.689Z,102006.97
2023-05-19T07:45:14.494Z,102007.81
2023-05-19T07:47:44.058Z,102013.25
2023-05-19T07:50:16.405Z,102008.31
2023-05-19T07:52:45.963Z,102019.56
2023-05-19T07:55:15.471Z,102004.47
2023-05-19T07:57:44.983Z,102003.78
2023-05-19T08:00:15.740Z,102002.94
2023-05-19T08:02:45.359Z,102005.69
2023-05-19T08:05:17.466Z,102004.69
2023-05-19T08:07:47.189Z,102004.31
2023-05-19T08:10:16.941Z,102011.28
2023-05-19T08:12:46.824Z,102000.44
2023-05-19T08:15:16.693Z,102008.94
2023-05-19T08:17:46.207Z,102001.63
2023-05-19T08:20:18.812Z,102004.50
2023-05-19T08:22:48.268Z,102006.38
2023-05-19T08:25:19.894Z,102004.66
2023-05-19T08:27:49.449Z,102003.00
2023-05-19T08:30:18.916Z,102006.03
2023-05-19T08:32:48.938Z,102012.00
2023-05-19T08:35:21.252Z,101998.59
2023-05-19T08:37:50.709Z,102000.81
2023-05-19T08:40:21.004Z,102000.13
2023-05-19T08:42:50.774Z,101994.53
2023-05-19T08:45:20.649Z,101993.00
2023-05-19T08:47:50.225Z,101991.13
2023-05-19T08:50:27.001Z,101983.16
2023-05-19T08:53:04.275Z,101985.34
2023-05-19T08:55:38.535Z,101982.75
2023-05-19T08:58:08.207Z,101981.22
2023-05-19T09:00:38.066Z,101981.38
2023-05-19T09:03:18.350Z,101974.59
2023-05-19T09:05:55.124Z,101975.41
2023-05-19T09:08:24.873Z,101969.31
2023-05-19T09:10:54.339Z,101969.13
2023-05-19T09:13:23.955Z,101969.59
2023-05-19T09:15:55.395Z,101968.22
2023-05-19T09:18:26.731Z,101977.53
2023-05-19T09:21:02.800Z,101971.25
2023-05-19T09:23:34.520Z,101963.25
2023-05-19T09:26:07.481Z,101965.44
2023-05-19T09:28:38.532Z,101962.50
2023-05-19T09:31:09.538Z,101956.03
2023-05-19T09:33:41.560Z,101942.56
2023-05-19T09:36:14.964Z,101941.19
2023-05-19T09:38:44.486Z,101949.97
2023-05-19T09:41:17.476Z,101951.31
2023-05-19T09:43:57.287Z,101949.94
2023-05-19T09:46:30.437Z,101948.25
2023-05-19T09:49:00.485Z,101943.00
2023-05-19T09:51:32.725Z,101939.91
2023-05-19T09:54:02.330Z,101943.28
2023-05-19T09:56:36.994Z,101945.44
2023-05-19T09:59:09.979Z,101929.41
2023-05-19T10:01:41.789Z,101936.41
2023-05-19T10:04:11.835Z,101934.72
2023-05-19T10:06:44.621Z,101935.44
2023-05-19T10:09:14.428Z,101939.31
2023-05-19T10:11:44.624Z,101939.78
2023-05-19T10:14:14.349Z,101929.53
2023-05-19T10:16:44.595Z,101925.19
2023-05-19T10:19:15.684Z,101933.69
2023-05-19T10:21:47.792Z,101929.16
2023-05-19T10:24:17.340Z,101918.84
2023-05-19T10:26:49.437Z,101923.84
2023-05-19T10:29:22.795Z,101925.44
2023-05-19T10:31:55.239Z,101913.41
2023-05-19T10:34:40.731Z,101907.31
2023-05-19T10:37:20.094Z,101907.94
2023-05-19T10:39:53.854Z,101905.88
2023-05-19T10:42:35.450Z,101906.34
2023-05-19T10:45:13.412Z,101896.78
2023-05-19T10:47:43.762Z,101897.06
2023-05-19T10:50:13.968Z,101891.53
2023-05-19T10:52:46.063Z,101888.34
2023-05-19T10:55:17.975Z,101875.75
2023-05-19T10:57:57.145Z,101885.25
2023-05-19T11:00:34.036Z,101869.94
2023-05-19T11:03:16.719Z,101881.75
2023-05-19T11:05:50.148Z,101877.16
2023-05-19T11:08:35.090Z,101868.78
2023-05-19T11:11:16.531Z,101870.44
2023-05-19T11:13:50.926Z,101862.56
2023-05-19T11:16:31.027Z,101875.81
2023-05-19T11:19:02.864Z,101873.59
2023-05-19T11:21:47.020Z,101874.25
2023-05-19T11:24:46.560Z,101875.09
2023-05-19T11:27:31.980Z,101871.72
2023-05-19T11:30:05.554Z,101874.03
2023-05-19T11:32:39.871Z,101865.81
2023-05-19T11:35:11.704Z,101872.63
2023-05-19T11:37:42.819Z,101873.72
2023-05-19T11:40:19.009Z,101857.66
2023-05-19T11:42:48.605Z,101866.69
2023-05-19T11:45:19.418Z,101854.09
2023-05-19T11:48:01.298Z,101855.47
2023-05-19T11:50:32.062Z,101860.66
2023-05-19T11:53:04.272Z,101852.88
2023-05-19T11:55:38.245Z,101852.94
2023-05-19T11:58:08.248Z,101859.31
2023-05-19T12:00:40.405Z,101851.47
2023-05-19T12:03:12.262Z,101847.94
2023-05-19T12:05:46.796Z,101855.63
2023-05-19T12:08:18.236Z,101847.66
2023-05-19T12:10:51.638Z,101855.72
2023-05-19T12:13:23.514Z,101845.28
2023-05-19T12:15:53.869Z,101847.47
2023-05-19T12:18:24.038Z,101846.47
2023-05-19T12:20:53.850Z,101839.34
2023-05-19T12:23:24.928Z,101841.94
2023-05-19T12:25:57.530Z,101844.25
2023-05-19T12:28:28.081Z,101831.66
2023-05-19T12:30:59.129Z,101833.50
2023-05-19T12:33:30.288Z,101839.09
2023-05-19T12:36:00.056Z,101842.84
2023-05-19T12:38:31.059Z,101832.09
2023-05-19T12:41:06.476Z,101833.94
2023-05-19T12:43:37.066Z,101831.16
2023-05-19T12:46:12.871Z,101826.72
2023-05-19T12:48:46.238Z,101835.56
2023-05-19T12:51:20.092Z,101825.47
2023-05-19T12:53:50.275Z,101828.47
2023-05-19T12:56:24.553Z,101821.53
2023-05-19T12:58:57.369Z,101828.56
2023-05-19T13:01:28.466Z,101829.56
2023-05-19T13:03:58.351Z,101819.47
2023-05-19T13:06:28.798Z,101817.84
2023-05-19T13:08:58.642Z,101814.69
2023-05-19T13:11:30.713Z,101813.66
2023-05-19T13:14:00.213Z,101808.84
2023-05-19T13:16:30.229Z,101801.47
2023-05-19T13:18:59.860Z,101813.78
2023-05-19T13:21:29.864Z,101800.38
2023-05-19T13:23:59.321Z,101803.31
2023-05-19T13:26:31.405Z,101807.13
2023-05-19T13:29:00.927Z,101798.19
2023-05-19T13:31:34.009Z,101803.00
2023-05-19T13:34:03.574Z,101803.09
2023-05-19T13:36:33.434Z,101813.59
2023-05-19T13:39:03.609Z,101819.50
2023-05-19T13:41:35.836Z,101811.34
2023-05-19T13:44:06.687Z,101815.34
2023-05-19T13:46:44.793Z,101817.91
2023-05-19T13:49:16.094Z,101814.50
2023-05-19T13:51:46.299Z,101808.63
2023-05-19T13:54:15.867Z,101804.41
2023-05-19T13:56:48.842Z,101810.72
2023-05-19T13:59:18.626Z,101810.28
2023-05-19T14:01:48.324Z,101807.72
2023-05-19T14:04:20.336Z,101794.88
2023-05-19T14:06:49.937Z,101795.50
2023-05-19T14:09:19.534Z,101791.47
2023-05-19T14:11:52.113Z,101783.47
2023-05-19T14:14:21.483Z,101780.91
2023-05-19T14:16:51.067Z,101789.38
2023-05-19T14:19:20.821Z,101790.16
2023-05-19T14:21:50.524Z,101781.31
2023-05-19T14:24:20.313Z,101772.06
2023-05-19T14:26:53.445Z,101770.38
2023-05-19T14:29:22.934Z,101769.53
2023-05-19T14:31:52.470Z,101775.00
2023-05-19T14:34:22.070Z,101769.47
2023-05-19T14:36:51.658Z,101777.53
2023-05-19T14:39:21.219Z,101779.66
2023-05-19T14:41:53.312Z,101781.75
2023-05-19T14:44:22.814Z,101783.03
2023-05-19T14:46:52.365Z,101785.78
2023-05-19T14:49:21.921Z,101781.56
2023-05-19T14:51:51.410Z,101780.06
2023-05-19T14:54:20.906Z,101780.72
2023-05-19T14:56:52.993Z,101778.41
2023-05-19T14:59:22.537Z,101776.50
2023-05-19T15:01:52.191Z,101772.25
2023-05-19T15:04:21.837Z,101754.31
2023-05-19T15:07:05.740Z,101772.84
2023-05-19T15:09:38.989Z,101762.69
2023-05-19T15:12:11.255Z,101758.50
2023-05-19T15:14:40.802Z,101754.72
2023-05-19T15:17:10.410Z,101749.44
2023-05-19T15:19:41.138Z,101757.22
2023-05-19T15:22:10.883Z,101752.78
2023-05-19T15:24:41.340Z,101756.78
2023-05-19T15:27:13.653Z,101763.13
2023-05-19T15:29:43.200Z,101763.38
2023-05-19T15:32:12.662Z,101766.97
2023-05-19T15:34:42.200Z,101766.56
2023-05-19T15:37:11.672Z,101764.47
2023-05-19T15:39:41.180Z,101775.25
2023-05-19T15:42:13.345Z,101771.66
2023-05-19T15:44:42.823Z,101779.03
2023-05-19T15:47:12.292Z,101770.78
2023-05-19T15:49:41.812Z,101773.78
2023-05-19T15:52:11.294Z,101771.66
2023-05-19T15:54:41.010Z,101766.84
2023-05-19T15:57:13.658Z,101769.59
2023-05-19T15:59:43.187Z,101778.25
2023-05-19T16:02:12.922Z,101765.81
2023-05-19T16:04:42.484Z,101763.88
2023-05-19T16:07:11.954Z,101761.16
2023-05-19T16:09:41.440Z,101762.22
2023-05-19T16:12:13.501Z,101751.88
2023-05-19T16:14:42.965Z,101752.50
2023-05-19T16:17:15.250Z,101744.94
2023-05-19T16:19:44.735Z,101745.56
2023-05-19T16:22:14.377Z,101737.34
2023-05-19T16:24:43.873Z,101734.16
2023-05-19T16:27:15.894Z,101744.50
2023-05-19T16:29:45.379Z,101744.50
2023-05-19T16:32:14.930Z,101740.28
2023-05-19T16:34:44.394Z,101735.66
2023-05-19T16:37:13.954Z,101739.88
2023-05-19T16:39:43.922Z,101733.34
2023-05-19T16:42:16.033Z,101735.00
2023-05-19T16:44:45.501Z,101733.75
2023-05-19T16:47:15.729Z,101731.66
2023-05-19T16:49:45.458Z,101734.63
2023-05-19T16:52:14.972Z,101730.78
2023-05-19T16:54:44.448Z,101739.25
2023-05-19T16:57:17.039Z,101737.53
2023-05-19T16:59:46.364Z,101736.50
2023-05-19T17:02:15.885Z,101741.13
2023-05-19T17:04:45.374Z,101741.53
2023-05-19T17:07:15.997Z,101737.53
2023-05-19T17:09:46.059Z,101747.22
2023-05-19T17:12:18.157Z,101743.41
2023-05-19T17:14:47.660Z,101734.59
2023-05-19T17:17:17.207Z,101742.81
2023-05-19T17:19:46.966Z,101741.72
2023-05-19T17:22:16.431Z,101740.69
2023-05-19T17:24:45.966Z,101736.47
2023-05-19T17:27:18.041Z,101735.19
2023-05-19T17:29:47.819Z,101728.91
2023-05-19T17:32:17.392Z,101729.94
2023-05-19T17:34:46.927Z,101735.41
2023-05-19T17:37:19.214Z,101741.31
2023-05-19T17:39:48.703Z,101739.19
2023-05-19T17:42:20.792Z,101744.91
2023-05-19T17:44:50.318Z,101735.63
2023-05-19T17:47:19.800Z,101737.53
2023-05-19T17:49:50.273Z,101739.00
2023-05-19T17:52:19.936Z,101732.66
2023-05-19T17:54:50.641Z,101733.94
2023-05-19T17:57:27.231Z,101733.09
2023-05-19T17:59:57.407Z,101732.22
2023-05-19T18:02:27.463Z,101737.28
2023-05-19T18:04:57.586Z,101737.50
2023-05-19T18:07:28.311Z,101732.22
2023-05-19T18:09:58.836Z,101734.75
2023-05-19T18:12:30.868Z,101730.13
2023-05-19T18:15:00.558Z,101725.91
2023-05-19T18:17:30.114Z,101733.47
2023-05-19T18:19:59.621Z,101722.75
2023-05-19T18:22:29.126Z,101729.03
2023-05-19T18:24:58.995Z,101726.53
2023-05-19T18:27:31.556Z,101728.41
2023-05-19T18:30:00.873Z,101733.91
2023-05-19T18:32:30.369Z,101729.88
2023-05-19T18:35:00.038Z,101730.09
2023-05-19T18:37:29.875Z,101734.53
2023-05-19T18:39:59.453Z,101728.63
2023-05-19T18:42:31.457Z,101727.97
2023-05-19T18:45:00.920Z,101732.41
2023-05-19T18:47:30.376Z,101737.25
2023-05-19T18:50:00.266Z,101747.34
2023-05-19T18:52:31.410Z,101746.03
2023-05-19T18:55:01.371Z,101740.56
2023-05-19T18:57:33.513Z,101741.63
2023-05-19T19:00:08.164Z,101744.53
2023-05-19T19:02:37.656Z,101740.13
2023-05-19T19:05:09.629Z,101748.53
2023-05-19T19:07:43.351Z,101750.84
2023-05-19T19:10:15.342Z,101755.47
2023-05-19T19:12:47.487Z,101755.69
2023-05-19T19:15:16.969Z,101752.50
2023-05-19T19:17:46.454Z,101755.44
2023-05-19T19:20:18.797Z,101753.53
2023-05-19T19:22:48.247Z,101758.56
2023-05-19T19:25:17.788Z,101764.00
2023-05-19T19:27:49.820Z,101763.38
2023-05-19T19:30:19.321Z,101765.69
2023-05-19T19:32:48.897Z,101759.56
2023-05-19T19:35:18.651Z,101764.16
2023-05-19T19:37:48.130Z,101769.00
2023-05-19T19:40:18.232Z,101774.66
2023-05-19T19:42:50.311Z,101775.06
2023-05-19T19:45:20.992Z,101770.22
2023-05-19T19:47:51.962Z,101776.94
2023-05-19T19:50:22.081Z,101775.41
2023-05-19T19:52:51.835Z,101779.41
2023-05-19T19:55:21.312Z,101777.53
2023-05-19T19:57:53.349Z,101785.28
2023-05-19T20:00:23.289Z,101785.03
2023-05-19T20:03:03.656Z,101784.00
2023-05-19T20:05:34.426Z,101785.44
2023-05-19T20:08:04.547Z,101782.66
2023-05-19T20:10:34.304Z,101786.41
2023-05-19T20:13:06.535Z,101793.13
2023-05-19T20:15:36.050Z,101797.50
2023-05-19T20:18:05.552Z,101798.38
2023-05-19T20:20:35.404Z,101803.38
2023-05-19T20:23:05.127Z,101805.41
2023-05-19T20:25:34.885Z,101800.50
2023-05-19T20:28:07.689Z,101802.38
2023-05-19T20:30:37.300Z,101800.66
2023-05-19T20:33:07.277Z,101795.38
2023-05-19T20:35:36.812Z,101799.34
2023-05-19T20:38:06.327Z,101803.31
2023-05-19T20:40:36.088Z,101810.88
2023-05-19T20:43:08.174Z,101808.97
2023-05-19T20:45:37.943Z,101803.91
2023-05-19T20:48:08.788Z,101803.91
2023-05-19T20:50:38.403Z,101806.19
2023-05-19T20:53:07.951Z,101809.31
2023-05-19T20:55:38.073Z,101811.78
2023-05-19T20:58:10.137Z,101810.09
2023-05-19T21:00:39.685Z,101814.03
2023-05-19T21:03:09.233Z,101812.47
2023-05-19T21:05:38.921Z,101812.75
2023-05-19T21:08:12.927Z,101814.56
2023-05-19T21:10:42.516Z,101814.09
2023-05-19T21:13:14.941Z,101814.25
2023-05-19T21:15:44.458Z,101799.53
2023-05-19T21:18:14.352Z,101814.25
2023-05-19T21:20:43.890Z,101810.06
2023-05-19T21:23:13.472Z,101811.91
2023-05-19T21:25:45.106Z,101807.28
2023-05-19T21:28:17.590Z,101813.97
2023-05-19T21:30:50.354Z,101808.06
2023-05-19T21:33:19.949Z,101814.34
2023-05-19T21:35:49.432Z,101815.50
2023-05-19T21:38:23.812Z,101820.31
2023-05-19T21:40:54.042Z,101827.66
2023-05-19T21:43:26.130Z,101824.19
2023-05-19T21:45:55.627Z,101822.31
2023-05-19T21:48:25.183Z,101828.44
2023-05-19T21:50:56.279Z,101837.47
2023-05-19T21:53:25.774Z,101835.22
2023-05-19T21:55:55.323Z,101829.09
2023-05-19T21:58:27.503Z,101831.94
2023-05-19T22:00:57.252Z,101831.94
2023-05-19T22:03:26.903Z,101834.84
2023-05-19T22:05:57.816Z,101834.53
2023-05-19T22:08:27.322Z,101833.41
2023-05-19T22:10:56.834Z,101835.47
2023-05-19T22:13:28.908Z,101831.25
2023-05-19T22:15:58.464Z,101834.56
2023-05-19T22:18:28.025Z,101834.72
2023-05-19T22:20:57.513Z,101836.06
2023-05-19T22:23:26.980Z,101846.47
2023-05-19T22:25:56.461Z,101841.25
2023-05-19T22:28:28.498Z,101836.53
2023-05-19T22:30:57.984Z,101836.81
2023-05-19T22:33:27.483Z,101837.00
2023-05-19T22:35:57.077Z,101837.09
2023-05-19T22:38:26.538Z,101834.63
2023-05-19T22:40:56.131Z,101830.59
2023-05-19T22:43:28.212Z,101842.44
2023-05-19T22:45:57.676Z,101836.22
2023-05-19T22:48:27.415Z,101842.22
2023-05-19T22:50:56.949Z,101834.78
2023-05-19T22:53:26.519Z,101847.13
2023-05-19T22:55:55.989Z,101845.25
2023-05-19T22:58:28.384Z,101845.41
2023-05-19T23:00:57.877Z,101853.97
2023-05-19T23:03:27.373Z,101849.91
2023-05-19T23:05:56.838Z,101863.25
2023-05-19T23:08:26.448Z,101861.13
2023-05-19T23:10:55.902Z,101857.34
2023-05-19T23:13:28.130Z,101855.56
2023-05-19T23:15:57.594Z,101858.28
2023-05-19T23:18:27.100Z,101857.41
2023-05-19T23:20:56.615Z,101859.19
2023-05-19T23:23:27.582Z,101863.78
2023-05-19T23:25:57.627Z,101861.06
2023-05-19T23:28:29.678Z,101871.75
2023-05-19T23:30:59.429Z,101861.50
2023-05-19T23:33:28.979Z,101868.44
2023-05-19T23:35:58.463Z,101873.13
2023-05-19T23:38:27.947Z,101870.19
2023-05-19T23:40:57.457Z,101873.25
2023-05-19T23:43:29.592Z,101874.47
2023-05-19T23:45:59.066Z,101872.28
2023-05-19T23:48:29.674Z,101867.31
2023-05-19T23:50:59.820Z,101869.75
2023-05-19T23:53:29.381Z,101862.00
2023-05-19T23:55:58.894Z,101866.72
2023-05-19T23:58:30.961Z,101865.03
